createdAt,value
2023-03-29T00:00:19.865Z,7.10
2023-03-29T00:02:48.923Z,7.10
2023-03-29T00:05:17.907Z,7.10
2023-03-29T00:07:46.160Z,7.10
2023-03-29T00:10:14.296Z,7.10
2023-03-29T00:12:42.849Z,7.10
2023-03-29T00:15:11.522Z,7.10
2023-03-29T00:17:39.652Z,7.10
2023-03-29T00:20:10.938Z,7.20
2023-03-29T00:22:42.559Z,7.20
2023-03-29T00:25:13.508Z,7.20
2023-03-29T00:27:42.096Z,7.20
2023-03-29T00:30:11.196Z,7.20
2023-03-29T00:32:41.607Z,7.10
2023-03-29T00:35:10.298Z,7.10
2023-03-29T00:37:38.549Z,7.00
2023-03-29T00:40:13.037Z,7.00
2023-03-29T00:42:44.186Z,6.90
2023-03-29T00:45:12.328Z,6.90
2023-03-29T00:47:40.309Z,6.90
2023-03-29T00:50:12.941Z,6.90
2023-03-29T00:52:42.089Z,6.80
2023-03-29T00:55:13.747Z,6.80
2023-03-29T00:57:43.842Z,6.70
2023-03-29T01:00:12.541Z,6.70
2023-03-29T01:02:42.405Z,6.60
2023-03-29T01:05:20.586Z,6.60
2023-03-29T01:08:01.419Z,6.50
2023-03-29T01:10:39.024Z,6.50
2023-03-29T01:13:11.395Z,6.40
2023-03-29T01:15:42.406Z,6.40
2023-03-29T01:18:11.066Z,6.30
2023-03-29T01:21:03.486Z,6.30
2023-03-29T01:23:44.064Z,6.20
2023-03-29T01:26:20.145Z,6.20
2023-03-29T01:28:53.568Z,6.20
2023-03-29T01:31:30.563Z,6.20
2023-03-29T01:34:05.228Z,6.10
2023-03-29T01:36:39.752Z,6.10
2023-03-29T01:39:08.243Z,6.00
2023-03-29T01:41:48.213Z,6.00
2023-03-29T01:44:20.598Z,6.00
2023-03-29T01:46:51.120Z,6.00
2023-03-29T01:49:29.063Z,5.90
2023-03-29T01:52:00.302Z,5.90
2023-03-29T01:54:40.523Z,5.90
2023-03-29T01:57:10.797Z,5.90
2023-03-29T01:59:40.871Z,5.80
2023-03-29T02:02:11.835Z,5.80
2023-03-29T02:04:42.128Z,5.80
2023-03-29T02:07:13.233Z,5.80
2023-03-29T02:09:43.209Z,5.80
2023-03-29T02:12:11.850Z,5.70
2023-03-29T02:14:40.940Z,5.70
2023-03-29T02:17:19.488Z,5.70
2023-03-29T02:19:54.879Z,5.60
2023-03-29T02:22:24.588Z,5.60
2023-03-29T02:24:55.380Z,5.60
2023-03-29T02:27:23.526Z,5.60
2023-03-29T02:29:51.727Z,5.60
2023-03-29T02:32:23.481Z,5.50
2023-03-29T02:34:56.874Z,5.50
2023-03-29T02:37:27.095Z,5.50
2023-03-29T02:39:58.261Z,5.50
2023-03-29T02:42:27.443Z,5.40
2023-03-29T02:44:58.071Z,5.40
2023-03-29T02:47:31.864Z,5.40
2023-03-29T02:50:01.121Z,5.40
2023-03-29T02:52:33.919Z,5.40
2023-03-29T02:55:03.565Z,5.40
2023-03-29T02:57:32.877Z,5.30
2023-03-29T03:00:01.616Z,5.30
2023-03-29T03:02:30.133Z,5.30
2023-03-29T03:04:59.746Z,5.30
2023-03-29T03:07:29.134Z,5.30
2023-03-29T03:09:59.043Z,5.20
2023-03-29T03:12:27.628Z,5.20
2023-03-29T03:14:55.675Z,5.20
2023-03-29T03:17:24.971Z,5.20
2023-03-29T03:19:53.780Z,5.10
2023-03-29T03:22:21.915Z,5.20
2023-03-29T03:24:49.967Z,5.20
2023-03-29T03:27:18.734Z,5.20
2023-03-29T03:29:49.082Z,5.20
2023-03-29T03:32:21.039Z,5.20
2023-03-29T03:34:50.144Z,5.30
2023-03-29T03:37:18.581Z,5.30
2023-03-29T03:39:47.272Z,5.20
2023-03-29T03:42:16.060Z,5.20
2023-03-29T03:44:46.150Z,5.20
2023-03-29T03:47:40.156Z,5.10
2023-03-29T03:50:33.991Z,5.10
2023-03-29T03:53:02.532Z,5.10
2023-03-29T03:55:51.954Z,5.10
2023-03-29T03:58:27.634Z,5.10
2023-03-29T04:00:55.903Z,5.10
2023-03-29T04:03:38.351Z,5.10
2023-03-29T04:06:07.475Z,5.10
2023-03-29T04:08:55.689Z,5.10
2023-03-29T04:11:34.886Z,5.10
2023-03-29T04:14:03.296Z,5.10
2023-03-29T04:16:49.970Z,5.20
2023-03-29T04:19:43.640Z,5.20
2023-03-29T04:22:11.839Z,5.20
2023-03-29T04:24:39.906Z,5.30
2023-03-29T04:27:40.852Z,5.30
2023-03-29T04:30:32.342Z,5.30
2023-03-29T04:33:09.345Z,5.30
2023-03-29T04:35:40.298Z,5.40
2023-03-29T04:38:12.863Z,5.40
2023-03-29T04:40:42.623Z,5.40
2023-03-29T04:43:18.268Z,5.30
2023-03-29T04:45:56.942Z,5.30
2023-03-29T04:48:46.167Z,5.20
2023-03-29T04:51:15.363Z,5.30
2023-03-29T04:53:45.529Z,5.30
2023-03-29T04:56:13.800Z,5.20
2023-03-29T04:59:03.348Z,5.20
2023-03-29T05:01:31.516Z,5.20
2023-03-29T05:04:00.305Z,5.20
2023-03-29T05:06:37.303Z,5.20
2023-03-29T05:09:09.284Z,5.20
2023-03-29T05:11:51.393Z,5.20
2023-03-29T05:14:23.767Z,5.30
2023-03-29T05:16:52.550Z,5.40
2023-03-29T05:19:22.447Z,5.50
2023-03-29T05:21:51.520Z,5.60
2023-03-29T05:24:23.013Z,5.80
2023-03-29T05:26:59.437Z,5.90
2023-03-29T05:29:33.279Z,6.00
2023-03-29T05:32:23.036Z,6.20
2023-03-29T05:34:52.029Z,6.40
2023-03-29T05:37:20.330Z,6.50
2023-03-29T05:40:05.564Z,6.70
2023-03-29T05:42:42.244Z,6.90
2023-03-29T05:45:12.159Z,7.00
2023-03-29T05:47:42.086Z,7.10
2023-03-29T05:50:10.684Z,7.10
2023-03-29T05:52:39.473Z,7.20
2023-03-29T05:55:08.605Z,7.30
2023-03-29T05:57:38.052Z,7.50
2023-03-29T06:00:33.224Z,7.60
2023-03-29T06:03:21.071Z,7.80
2023-03-29T06:05:59.102Z,8.00
2023-03-29T06:08:29.826Z,8.20
2023-03-29T06:11:14.587Z,8.40
2023-03-29T06:14:18.089Z,8.70
2023-03-29T06:16:52.056Z,9.10
2023-03-29T06:19:20.868Z,9.50
2023-03-29T06:21:49.270Z,9.80
2023-03-29T06:24:22.303Z,10.20
2023-03-29T06:26:56.942Z,10.70
2023-03-29T06:29:25.746Z,10.70
2023-03-29T06:31:54.579Z,11.00
2023-03-29T06:34:45.902Z,11.70
2023-03-29T06:37:54.154Z,12.50
2023-03-29T06:40:38.278Z,13.60
2023-03-29T06:43:09.440Z,14.40
2023-03-29T06:45:54.897Z,14.70
2023-03-29T06:48:33.082Z,15.40
2023-03-29T06:51:01.834Z,15.30
2023-03-29T06:53:33.172Z,15.90
2023-03-29T06:56:09.677Z,15.70
2023-03-29T06:58:47.406Z,16.10
2023-03-29T07:01:41.983Z,15.80
2023-03-29T07:04:29.641Z,15.60
2023-03-29T07:07:33.637Z,16.50
2023-03-29T07:10:13.324Z,17.10
2023-03-29T07:13:01.341Z,18.40
2023-03-29T07:15:30.413Z,19.40
2023-03-29T07:18:21.530Z,19.90
2023-03-29T07:20:52.608Z,21.00
2023-03-29T07:23:23.474Z,20.10
2023-03-29T07:25:55.144Z,20.00
2023-03-29T07:28:23.159Z,21.20
2023-03-29T07:31:02.240Z,22.10
2023-03-29T07:33:32.296Z,21.30
2023-03-29T07:36:05.496Z,21.70
2023-03-29T07:38:38.405Z,20.90
2023-03-29T07:41:14.123Z,20.00
2023-03-29T07:43:52.318Z,20.10
2023-03-29T07:46:25.662Z,19.70
2023-03-29T07:48:53.899Z,19.10
2023-03-29T07:51:22.776Z,19.10
2023-03-29T07:53:56.019Z,21.30
2023-03-29T07:56:42.840Z,23.50
2023-03-29T07:59:17.385Z,23.00
2023-03-29T08:01:50.768Z,22.10
2023-03-29T08:04:29.306Z,21.00
2023-03-29T08:07:19.498Z,22.20
2023-03-29T08:10:12.455Z,24.50
2023-03-29T08:12:59.307Z,24.20
2023-03-29T08:15:42.519Z,24.40
2023-03-29T08:18:20.238Z,24.90
2023-03-29T08:20:48.505Z,25.80
2023-03-29T08:23:16.832Z,24.90
2023-03-29T08:25:55.237Z,26.20
2023-03-29T08:28:23.763Z,27.80
2023-03-29T08:30:53.212Z,28.00
2023-03-29T08:33:21.420Z,28.00
2023-03-29T08:35:58.232Z,28.30
2023-03-29T08:38:33.762Z,29.20
2023-03-29T08:41:02.338Z,28.00
2023-03-29T08:43:50.795Z,26.30
2023-03-29T08:46:22.033Z,27.10
2023-03-29T08:48:54.706Z,27.70
2023-03-29T08:51:37.112Z,28.30
2023-03-29T08:54:12.966Z,28.80
2023-03-29T08:57:21.236Z,29.00
2023-03-29T08:59:54.686Z,29.30
2023-03-29T09:02:26.710Z,30.30
2023-03-29T09:05:24.530Z,30.70
2023-03-29T09:08:14.633Z,29.20
2023-03-29T09:11:03.284Z,27.90
2023-03-29T09:13:40.202Z,26.30
2023-03-29T09:16:27.653Z,24.40
2023-03-29T09:19:06.797Z,27.00
2023-03-29T09:21:36.314Z,29.80
2023-03-29T09:24:10.774Z,30.40
2023-03-29T09:26:52.553Z,30.60
2023-03-29T09:29:34.957Z,29.00
2023-03-29T09:32:08.067Z,29.30
2023-03-29T09:34:40.478Z,30.70
2023-03-29T09:37:22.273Z,31.90
2023-03-29T09:39:53.602Z,32.40
2023-03-29T09:42:28.252Z,32.20
2023-03-29T09:45:08.854Z,32.00
2023-03-29T09:47:50.435Z,32.30
2023-03-29T09:50:31.095Z,31.40
2023-03-29T09:53:03.486Z,32.00
2023-03-29T09:55:36.930Z,32.10
2023-03-29T09:58:26.025Z,31.40
2023-03-29T10:00:58.663Z,31.70
2023-03-29T10:03:28.208Z,32.30
2023-03-29T10:06:10.304Z,33.10
2023-03-29T10:08:42.411Z,32.80
2023-03-29T10:11:24.298Z,33.10
2023-03-29T10:13:55.455Z,33.40
2023-03-29T10:16:24.923Z,33.50
2023-03-29T10:18:54.984Z,33.90
2023-03-29T10:21:24.265Z,34.30
2023-03-29T10:23:58.812Z,34.40
2023-03-29T10:26:36.861Z,31.80
2023-03-29T10:29:06.671Z,31.90
2023-03-29T10:31:41.922Z,32.20
2023-03-29T10:34:14.347Z,33.00
2023-03-29T10:36:44.695Z,31.20
2023-03-29T10:39:18.169Z,31.20
2023-03-29T10:41:46.526Z,31.50
2023-03-29T10:44:30.912Z,32.00
2023-03-29T10:47:16.515Z,32.00
2023-03-29T10:49:47.815Z,32.30
2023-03-29T10:52:17.016Z,32.00
2023-03-29T10:54:45.649Z,31.90
2023-03-29T10:57:22.796Z,31.70
2023-03-29T10:59:51.107Z,31.60
2023-03-29T11:02:20.067Z,31.00
2023-03-29T11:04:52.933Z,30.20
2023-03-29T11:07:35.014Z,29.50
2023-03-29T11:10:15.440Z,29.40
2023-03-29T11:13:06.714Z,28.90
2023-03-29T11:15:47.020Z,28.40
2023-03-29T11:18:18.104Z,29.10
2023-03-29T11:20:48.675Z,29.80
2023-03-29T11:23:23.936Z,29.70
2023-03-29T11:25:58.629Z,29.80
2023-03-29T11:28:35.744Z,29.90
2023-03-29T11:31:27.323Z,29.20
2023-03-29T11:34:16.012Z,29.70
2023-03-29T11:36:52.122Z,29.60
2023-03-29T11:39:30.941Z,30.00
2023-03-29T11:42:04.512Z,30.50
2023-03-29T11:44:33.430Z,30.80
2023-03-29T11:47:10.211Z,31.30
2023-03-29T11:49:42.299Z,32.00
2023-03-29T11:52:13.388Z,32.20
2023-03-29T11:54:45.206Z,32.30
2023-03-29T11:57:18.595Z,32.70
2023-03-29T12:00:07.588Z,32.90
2023-03-29T12:02:53.386Z,33.20
2023-03-29T12:05:27.790Z,33.50
2023-03-29T12:07:56.012Z,33.60
2023-03-29T12:10:27.827Z,33.70
2023-03-29T12:12:58.770Z,33.70
2023-03-29T12:15:32.223Z,33.80
2023-03-29T12:18:11.897Z,34.00
2023-03-29T12:20:40.863Z,34.10
2023-03-29T12:23:14.985Z,34.00
2023-03-29T12:26:06.346Z,34.00
2023-03-29T12:28:53.082Z,34.20
2023-03-29T12:31:21.366Z,34.30
2023-03-29T12:33:55.592Z,34.30
2023-03-29T12:37:02.752Z,34.00
2023-03-29T12:40:05.671Z,33.90
2023-03-29T12:43:00.169Z,33.70
2023-03-29T12:45:43.307Z,33.50
2023-03-29T12:48:19.373Z,33.40
2023-03-29T12:51:01.750Z,33.50
2023-03-29T12:53:34.880Z,33.30
2023-03-29T12:56:03.217Z,33.20
2023-03-29T12:58:40.624Z,33.10
2023-03-29T13:01:10.788Z,33.40
2023-03-29T13:03:48.003Z,33.40
2023-03-29T13:06:27.846Z,33.50
2023-03-29T13:09:00.295Z,33.50
2023-03-29T13:11:36.045Z,33.40
2023-03-29T13:14:11.082Z,33.50
2023-03-29T13:16:40.703Z,33.50
2023-03-29T13:19:18.745Z,33.60
2023-03-29T13:21:49.865Z,33.70
2023-03-29T13:24:33.825Z,33.70
2023-03-29T13:27:14.069Z,33.70
2023-03-29T13:30:09.620Z,33.40
2023-03-29T13:32:46.698Z,33.40
2023-03-29T13:35:23.623Z,33.30
2023-03-29T13:37:57.977Z,33.40
2023-03-29T13:40:27.016Z,33.30
2023-03-29T13:43:09.229Z,33.30
2023-03-29T13:45:37.617Z,33.30
2023-03-29T13:48:23.782Z,33.20
2023-03-29T13:51:01.384Z,33.30
2023-03-29T13:53:32.016Z,33.10
2023-03-29T13:56:00.440Z,32.80
2023-03-29T13:58:34.852Z,32.70
2023-03-29T14:01:07.946Z,32.50
2023-03-29T14:03:41.814Z,32.30
2023-03-29T14:06:11.796Z,32.10
2023-03-29T14:08:45.249Z,32.10
2023-03-29T14:11:21.549Z,31.80
2023-03-29T14:13:52.399Z,31.50
2023-03-29T14:16:21.339Z,31.40
2023-03-29T14:18:51.804Z,31.20
2023-03-29T14:21:23.323Z,30.90
2023-03-29T14:23:55.878Z,30.80
2023-03-29T14:26:25.197Z,30.90
2023-03-29T14:28:57.021Z,30.80
2023-03-29T14:31:26.754Z,30.60
2023-03-29T14:33:56.108Z,30.40
2023-03-29T14:36:28.166Z,30.20
2023-03-29T14:39:04.615Z,30.00
2023-03-29T14:41:34.140Z,29.70
2023-03-29T14:44:03.646Z,29.70
2023-03-29T14:46:34.230Z,29.20
2023-03-29T14:49:03.018Z,28.90
2023-03-29T14:51:31.576Z,28.80
2023-03-29T14:54:00.768Z,28.60
2023-03-29T14:56:29.375Z,28.50
2023-03-29T14:58:57.712Z,28.30
2023-03-29T15:01:27.179Z,28.00
2023-03-29T15:04:09.400Z,27.90
2023-03-29T15:06:47.448Z,27.60
2023-03-29T15:09:18.405Z,27.30
2023-03-29T15:11:54.042Z,26.90
2023-03-29T15:14:24.041Z,26.80
2023-03-29T15:16:53.265Z,26.80
2023-03-29T15:19:22.111Z,26.60
2023-03-29T15:21:51.157Z,26.40
2023-03-29T15:24:24.164Z,26.10
2023-03-29T15:27:18.686Z,25.90
2023-03-29T15:29:48.992Z,25.60
2023-03-29T15:32:23.316Z,25.40
2023-03-29T15:35:09.673Z,25.50
2023-03-29T15:37:38.175Z,25.60
2023-03-29T15:40:10.113Z,25.20
2023-03-29T15:42:38.353Z,24.80
2023-03-29T15:45:07.462Z,24.10
2023-03-29T15:47:36.034Z,24.00
2023-03-29T15:50:04.299Z,24.30
2023-03-29T15:52:32.401Z,23.90
2023-03-29T15:55:00.521Z,23.80
2023-03-29T15:57:29.161Z,24.20
2023-03-29T15:59:58.114Z,23.70
2023-03-29T16:02:26.402Z,23.00
2023-03-29T16:04:56.867Z,22.90
2023-03-29T16:07:24.904Z,23.00
2023-03-29T16:09:53.239Z,22.40
2023-03-29T16:12:21.598Z,21.90
2023-03-29T16:14:49.658Z,21.90
2023-03-29T16:17:19.960Z,21.90
2023-03-29T16:19:51.245Z,21.60
2023-03-29T16:22:19.271Z,21.10
2023-03-29T16:24:47.968Z,21.20
2023-03-29T16:27:17.148Z,21.20
2023-03-29T16:29:45.352Z,21.20
2023-03-29T16:32:13.493Z,21.10
2023-03-29T16:34:42.454Z,20.80
2023-03-29T16:37:10.847Z,20.70
2023-03-29T16:39:38.992Z,20.50
2023-03-29T16:42:09.463Z,20.40
2023-03-29T16:44:37.572Z,20.20
2023-03-29T16:47:05.669Z,20.20
2023-03-29T16:49:33.836Z,20.20
2023-03-29T16:52:05.030Z,20.10
2023-03-29T16:54:33.981Z,20.00
2023-03-29T16:57:02.219Z,19.70
2023-03-29T16:59:30.302Z,19.60
2023-03-29T17:01:58.401Z,19.50
2023-03-29T17:04:26.810Z,19.40
2023-03-29T17:06:55.888Z,19.30
2023-03-29T17:09:28.358Z,19.20
2023-03-29T17:11:57.702Z,19.10
2023-03-29T17:14:29.089Z,19.00
2023-03-29T17:16:58.043Z,18.90
2023-03-29T17:19:26.401Z,18.80
2023-03-29T17:21:54.648Z,18.60
2023-03-29T17:24:23.051Z,18.50
2023-03-29T17:26:51.143Z,18.40
2023-03-29T17:29:20.046Z,18.30
2023-03-29T17:31:50.712Z,18.10
2023-03-29T17:34:20.134Z,18.00
2023-03-29T17:36:49.283Z,17.90
2023-03-29T17:39:19.188Z,17.80
2023-03-29T17:41:47.675Z,17.70
2023-03-29T17:44:15.868Z,17.60
2023-03-29T17:46:44.225Z,17.50
2023-03-29T17:49:12.911Z,17.30
2023-03-29T17:51:41.165Z,16.90
2023-03-29T17:54:09.518Z,16.60
2023-03-29T17:56:37.643Z,16.30
2023-03-29T17:59:05.749Z,16.20
2023-03-29T18:01:35.348Z,16.00
2023-03-29T18:04:04.629Z,15.80
2023-03-29T18:06:32.852Z,15.60
2023-03-29T18:09:02.080Z,15.50
2023-03-29T18:11:31.247Z,15.30
2023-03-29T18:13:59.720Z,15.00
2023-03-29T18:16:28.043Z,14.80
2023-03-29T18:18:57.158Z,14.60
2023-03-29T18:21:26.752Z,14.50
2023-03-29T18:23:56.838Z,14.40
2023-03-29T18:26:25.572Z,14.30
2023-03-29T18:28:53.925Z,14.20
2023-03-29T18:31:22.340Z,14.20
2023-03-29T18:33:50.357Z,14.20
2023-03-29T18:36:18.514Z,14.30
2023-03-29T18:38:46.566Z,14.20
2023-03-29T18:41:15.184Z,14.00
2023-03-29T18:43:44.580Z,14.00
2023-03-29T18:46:15.782Z,14.10
2023-03-29T18:48:44.163Z,14.10
2023-03-29T18:51:13.012Z,14.00
2023-03-29T18:53:43.176Z,13.70
2023-03-29T18:56:11.778Z,13.60
2023-03-29T18:58:39.904Z,13.60
2023-03-29T19:01:08.163Z,13.50
2023-03-29T19:03:37.511Z,13.30
2023-03-29T19:06:06.246Z,13.30
2023-03-29T19:08:37.042Z,13.20
2023-03-29T19:11:06.262Z,13.10
2023-03-29T19:13:34.824Z,13.10
2023-03-29T19:16:03.402Z,12.80
2023-03-29T19:18:32.365Z,12.80
2023-03-29T19:21:01.492Z,12.80
2023-03-29T19:23:29.607Z,12.80
2023-03-29T19:26:00.827Z,12.70
2023-03-29T19:28:29.246Z,12.50
2023-03-29T19:30:59.282Z,12.50
2023-03-29T19:33:27.538Z,12.50
2023-03-29T19:35:58.802Z,12.40
2023-03-29T19:38:30.040Z,12.40
2023-03-29T19:41:00.496Z,12.30
2023-03-29T19:43:29.173Z,12.20
2023-03-29T19:45:57.565Z,12.30
2023-03-29T19:48:26.149Z,12.10
2023-03-29T19:50:54.317Z,11.90
2023-03-29T19:53:23.483Z,11.90
2023-03-29T19:55:51.679Z,11.90
2023-03-29T19:58:20.498Z,11.90
2023-03-29T20:00:51.152Z,12.00
2023-03-29T20:03:19.775Z,11.80
2023-03-29T20:05:47.959Z,11.80
2023-03-29T20:08:16.204Z,11.70
2023-03-29T20:10:44.568Z,11.60
2023-03-29T20:13:13.018Z,11.50
2023-03-29T20:15:46.148Z,11.40
2023-03-29T20:18:14.200Z,11.40
2023-03-29T20:20:45.049Z,11.30
2023-03-29T20:23:13.314Z,11.30
2023-03-29T20:25:42.188Z,11.20
2023-03-29T20:28:13.374Z,11.00
2023-03-29T20:30:42.162Z,11.00
2023-03-29T20:33:11.033Z,11.10
2023-03-29T20:35:39.029Z,11.10
2023-03-29T20:38:07.506Z,10.90
2023-03-29T20:40:36.075Z,10.80
2023-03-29T20:43:04.038Z,10.90
2023-03-29T20:45:39.992Z,10.90
2023-03-29T20:48:23.751Z,10.90
2023-03-29T20:50:52.094Z,10.90
2023-03-29T20:53:20.962Z,10.70
2023-03-29T20:55:49.191Z,10.70
2023-03-29T20:58:17.485Z,10.70
2023-03-29T21:00:47.133Z,10.50
2023-03-29T21:03:15.414Z,10.40
2023-03-29T21:05:43.925Z,10.40
2023-03-29T21:08:12.029Z,10.40
2023-03-29T21:10:42.840Z,10.20
2023-03-29T21:13:11.201Z,10.30
2023-03-29T21:15:41.040Z,10.20
2023-03-29T21:18:09.351Z,10.10
2023-03-29T21:20:38.230Z,10.10
2023-03-29T21:23:08.701Z,10.10
2023-03-29T21:25:38.110Z,10.00
2023-03-29T21:28:06.577Z,9.90
2023-03-29T21:30:34.663Z,9.90
2023-03-29T21:33:03.026Z,9.90
2023-03-29T21:35:33.715Z,9.80
2023-03-29T21:38:02.444Z,9.80
2023-03-29T21:40:30.932Z,9.70
2023-03-29T21:42:59.023Z,9.70
2023-03-29T21:45:27.162Z,9.70
2023-03-29T21:47:55.403Z,9.70
2023-03-29T21:50:23.591Z,9.70
2023-03-29T21:52:51.801Z,9.70
2023-03-29T21:55:21.159Z,9.60
2023-03-29T21:57:49.346Z,9.50
2023-03-29T22:00:19.216Z,9.50
2023-03-29T22:02:48.489Z,9.40
2023-03-29T22:05:17.061Z,9.30
2023-03-29T22:07:45.357Z,9.20
2023-03-29T22:10:13.589Z,9.20
2023-03-29T22:12:41.896Z,9.20
2023-03-29T22:15:12.513Z,9.10
2023-03-29T22:17:43.186Z,9.00
2023-03-29T22:20:15.231Z,9.00
2023-03-29T22:22:49.984Z,8.90
2023-03-29T22:25:19.046Z,8.90
2023-03-29T22:27:48.373Z,8.90
2023-03-29T22:30:18.939Z,8.80
2023-03-29T22:32:47.306Z,8.70
2023-03-29T22:35:18.355Z,8.70
2023-03-29T22:37:46.655Z,8.70
2023-03-29T22:40:14.791Z,8.70
2023-03-29T22:42:43.091Z,8.60
2023-03-29T22:45:11.487Z,8.60
2023-03-29T22:47:42.368Z,8.60
2023-03-29T22:50:10.659Z,8.60
2023-03-29T22:52:38.694Z,8.50
2023-03-29T22:55:07.406Z,8.50
2023-03-29T22:57:35.386Z,8.40
2023-03-29T23:00:07.358Z,8.40
2023-03-29T23:02:35.497Z,8.30
2023-03-29T23:05:04.222Z,8.30
2023-03-29T23:07:36.733Z,8.30
2023-03-29T23:10:05.742Z,8.20
2023-03-29T23:12:36.644Z,8.10
2023-03-29T23:15:06.725Z,8.10
2023-03-29T23:17:35.357Z,8.10
2023-03-29T23:20:07.558Z,8.00
2023-03-29T23:22:36.810Z,8.00
2023-03-29T23:25:05.096Z,7.90
2023-03-29T23:27:33.741Z,7.90
2023-03-29T23:30:02.166Z,7.90
2023-03-29T23:32:30.735Z,7.80
2023-03-29T23:35:00.449Z,7.80
2023-03-29T23:37:31.440Z,7.70
2023-03-29T23:39:59.750Z,7.70
2023-03-29T23:42:30.382Z,7.60
2023-03-29T23:44:59.576Z,7.60
2023-03-29T23:47:27.784Z,7.60
2023-03-29T23:49:56.203Z,7.50
2023-03-29T23:52:25.701Z,7.50
2023-03-29T23:54:53.973Z,7.40
2023-03-29T23:57:22.095Z,7.30
2023-03-29T23:59:53.037Z,7.30
